National Weather Service Raw Text Product

Displaying AFOS PIL: TAFALO Received: 2018-03-08 11:20 UTC


738 
FTUS43 KDMX 081120
TAFALO
TAF
KALO 081120Z 0812/0912 30009KT P6SM FEW100
     FM090400 VRB03KT P6SM SCT070=